Time;durP1;ratioP1;P1;durP2;ratioP2;P2;SDS_P1;SDS_P2;PMS_P1;PMS_P2;Temp;Humidity;BMP_temperature;BMP_pressure;BME280_temperature;BME280_humidity;BME280_pressure;Samples;Min_cycle;Max_cycle;Signal;HPM_P1;HPM_P2
2023/01/02 00:00:33;;;;;;;4.25;1.25;;;;;;;-145.06;100.00;60892.56;5872621;23;20006;-92
2023/01/02 00:03:22;;;;;;;1.75;0.80;;;;;;;-145.06;100.00;60892.56;5872343;23;20025;-91
2023/01/02 00:06:02;;;;;;;;;;;;;;;-145.06;100.00;60892.56;5875277;23;20006;-92
2023/01/02 00:08:44;;;;;;;;;;;;;;;-145.06;100.00;60892.56;5874403;23;19909;-92
2023/01/02 00:11:23;;;;;;;2.47;0.80;;;;;;;-145.06;100.00;60892.56;5872935;23;19905;-92
2023/01/02 00:14:03;;;;;;;1.23;0.73;;;;;;;-145.06;100.00;60892.56;5875667;23;20010;-92
2023/01/02 00:16:45;;;;;;;1.60;0.73;;;;;;;-145.06;100.00;60892.56;5873884;23;20342;-90
2023/01/02 00:20:10;;;;;;;1.55;0.75;;;;;;;-145.06;100.00;60892.56;5871921;23;20014;-93
2023/01/02 00:23:44;;;;;;;1.88;0.85;;;;;;;-145.06;100.00;60892.56;5894195;23;20002;-93
2023/01/02 00:26:28;;;;;;;1.38;0.70;;;;;;;-145.06;100.00;60892.56;5798470;23;20010;-93
2023/01/02 00:29:07;;;;;;;0.90;0.70;;;;;;;-145.06;100.00;60892.56;5873505;23;20010;-92
2023/01/02 00:31:49;;;;;;;3.03;0.82;;;;;;;-145.06;100.00;60892.56;5875492;23;20188;-92
2023/01/02 00:34:31;;;;;;;2.72;0.85;;;;;;;-145.06;100.00;60892.56;5896868;23;20553;-92
2023/01/02 00:37:10;;;;;;;1.23;0.70;;;;;;;-145.06;100.00;60892.56;5880723;23;20010;-93
2023/01/02 00:39:53;;;;;;;1.38;0.70;;;;;;;-145.06;100.00;60892.56;5873349;23;20006;-92
2023/01/02 00:42:32;;;;;;;1.98;0.50;;;;;;;-145.06;100.00;60892.56;5875800;23;20010;-91
2023/01/02 00:45:11;;;;;;;0.90;0.60;;;;;;;-145.06;100.00;60892.56;5873210;23;20070;-92
2023/01/02 00:47:51;;;;;;;0.73;0.43;;;;;;;-145.06;100.00;60892.56;5873533;23;20006;-92
2023/01/02 00:50:44;;;;;;;1.02;0.50;;;;;;;-145.06;100.00;60892.56;5875036;23;20011;-93
2023/01/02 00:53:25;;;;;;;0.88;0.47;;;;;;;-145.06;100.00;60892.56;5873660;23;20010;-92
2023/01/02 00:56:08;;;;;;;3.65;0.75;;;;;;;-145.06;100.00;60892.56;5873908;23;20003;-91
2023/01/02 00:58:49;;;;;;;1.25;0.60;;;;;;;-145.06;100.00;60892.56;5896050;23;20010;-92
2023/01/02 01:01:30;;;;;;;2.05;0.95;;;;;;;-145.06;100.00;60892.56;5871676;23;20010;-93
2023/01/02 01:04:47;;;;;;;1.55;0.65;;;;;;;-145.06;100.00;60892.56;5873940;23;20014;-92
2023/01/02 01:07:28;;;;;;;2.80;0.75;;;;;;;-145.06;100.00;60892.56;5874109;23;20306;-93
2023/01/02 01:10:11;;;;;;;1.35;0.50;;;;;;;-145.06;100.00;60892.56;5875984;23;20006;-92
2023/01/02 01:12:50;;;;;;;3.90;0.70;;;;;;;-145.06;100.00;60892.56;5872660;23;20342;-92
2023/01/02 01:15:30;;;;;;;1.85;0.70;;;;;;;-145.06;100.00;60892.56;5873429;23;20029;-92
2023/01/02 01:18:12;;;;;;;1.73;0.70;;;;;;;-145.06;100.00;60892.56;5875006;23;20006;-93
2023/01/02 01:20:56;;;;;;;1.38;0.70;;;;;;;-145.06;100.00;60892.56;5873599;23;20006;-92
2023/01/02 01:23:38;;;;;;;3.03;0.70;;;;;;;-145.06;100.00;60892.56;5873555;23;20006;-93
2023/01/02 01:26:19;;;;;;;2.33;0.82;;;;;;;-145.06;100.00;60892.56;5873764;23;20443;-92
2023/01/02 01:29:04;;;;;;;0.95;0.55;;;;;;;-145.06;100.00;60892.56;5894000;23;20037;-92
2023/01/02 01:32:06;;;;;;;1.30;0.63;;;;;;;-145.06;100.00;60892.56;5883036;23;20089;-92
2023/01/02 01:34:45;;;;;;;0.85;0.40;;;;;;;-145.06;100.00;60892.56;5895003;23;20006;-92
2023/01/02 01:37:25;;;;;;;1.02;0.50;;;;;;;-145.06;100.00;60892.56;5870913;23;20010;-91
2023/01/02 01:40:13;;;;;;;3.42;0.82;;;;;;;-145.06;100.00;60892.56;5894341;23;20011;-92
2023/01/02 01:42:56;;;;;;;1.70;0.40;;;;;;;-145.06;100.00;60892.56;5874610;23;20318;-92
2023/01/02 01:45:43;;;;;;;1.63;0.82;;;;;;;-145.06;100.00;60892.56;5875482;23;20007;-92
2023/01/02 01:48:22;;;;;;;1.08;0.73;;;;;;;-145.06;100.00;60892.56;5874611;23;20010;-91
2023/01/02 01:51:02;;;;;;;2.15;0.80;;;;;;;-145.06;100.00;60892.56;5873454;23;20037;-93
2023/01/02 01:53:51;;;;;;;0.90;0.50;;;;;;;-145.06;100.00;60892.56;5875158;23;20006;-93
2023/01/02 01:56:59;;;;;;;1.95;0.90;;;;;;;-145.06;100.00;60892.56;5873362;23;21940;-93
2023/01/02 01:59:40;;;;;;;2.40;0.70;;;;;;;-145.06;100.00;60892.56;5872603;23;20006;-92
2023/01/02 02:02:21;;;;;;;1.25;0.70;;;;;;;-145.06;100.00;60892.56;5894737;23;20006;-91
2023/01/02 02:05:11;;;;;;;2.22;0.60;;;;;;;-145.06;100.00;60892.56;5872857;23;20006;-92
2023/01/02 02:08:02;;;;;;;1.25;0.82;;;;;;;-145.06;100.00;60892.56;5871992;23;20030;-92
2023/01/02 02:10:45;;;;;;;0.70;0.57;;;;;;;-145.06;100.00;60892.56;5874530;23;20074;-92
2023/01/02 02:13:34;;;;;;;2.47;0.75;;;;;;;-145.06;100.00;60892.56;5870514;23;20006;-93
2023/01/02 02:16:51;;;;;;;2.00;0.80;;;;;;;-145.06;100.00;60892.56;5872195;23;20077;-92
2023/01/02 02:20:16;;;;;;;1.33;0.70;;;;;;;-145.06;100.00;60892.56;5859168;23;20002;-92
2023/01/02 02:23:14;;;;;;;2.20;0.65;;;;;;;-145.06;100.00;60892.56;5873877;23;20002;-91
2023/01/02 02:26:30;;;;;;;2.63;0.63;;;;;;;-145.06;100.00;60892.56;5872274;23;20442;-93
2023/01/02 02:30:03;;;;;;;1.48;0.88;;;;;;;-145.06;100.00;60892.56;5874474;23;20054;-93
2023/01/02 02:33:22;;;;;;;;;;;;;;;;;;;;;
2023/01/02 02:36:13;;;;;;;3.80;0.98;;;;;;;-145.06;100.00;60892.56;5904402;23;19998;-92
2023/01/02 02:39:10;;;;;;;2.25;0.77;;;;;;;-145.06;100.00;60892.56;5874448;23;20006;-91
2023/01/02 02:42:42;;;;;;;1.25;0.60;;;;;;;-145.06;100.00;60892.56;5872107;23;20007;-91
2023/01/02 02:45:47;;;;;;;2.63;0.60;;;;;;;-145.06;100.00;60892.56;5879490;23;20007;-91
2023/01/02 02:49:15;;;;;;;1.42;0.60;;;;;;;-145.06;100.00;60892.56;5877212;23;20029;-91
2023/01/02 02:52:24;;;;;;;1.67;0.52;;;;;;;-145.06;100.00;60892.56;5857597;23;20592;-92
2023/01/02 02:55:21;;;;;;;1.42;0.70;;;;;;;-145.06;100.00;60892.56;5872468;23;20006;-92
2023/01/02 02:58:10;;;;;;;1.25;0.73;;;;;;;-145.06;100.00;60892.56;5874052;23;20062;-93
2023/01/02 03:00:49;;;;;;;3.90;0.90;;;;;;;-145.06;100.00;60892.56;5871792;23;20037;-92
2023/01/02 03:03:34;;;;;;;3.58;1.25;;;;;;;-145.06;100.00;60892.56;5872463;23;20037;-92
2023/01/02 03:06:23;;;;;;;2.13;0.82;;;;;;;-145.06;100.00;60892.56;5893230;23;20007;-92
2023/01/02 03:09:10;;;;;;;2.95;0.90;;;;;;;-145.06;100.00;60892.56;5873235;23;20002;-92
2023/01/02 03:12:19;;;;;;;1.90;0.80;;;;;;;-145.06;100.00;60892.56;5871025;23;20010;-92
2023/01/02 03:15:19;;;;;;;2.35;0.73;;;;;;;-145.06;100.00;60892.56;5873179;23;20006;-92
2023/01/02 03:18:19;;;;;;;1.52;0.68;;;;;;;-145.06;100.00;60892.56;5871832;23;20003;-93
2023/01/02 03:21:06;;;;;;;1.67;0.60;;;;;;;-145.06;100.00;60892.56;5872799;23;20002;-91
2023/01/02 03:23:56;;;;;;;1.20;0.57;;;;;;;-145.06;100.00;60892.56;5872455;23;20010;-92
2023/01/02 03:26:42;;;;;;;2.17;1.00;;;;;;;-145.06;100.00;60892.56;5871529;23;20010;-92
2023/01/02 03:29:56;;;;;;;1.33;0.77;;;;;;;-145.06;100.00;60892.56;5872614;23;20062;-92
2023/01/02 03:32:57;;;;;;;1.38;0.70;;;;;;;-145.06;100.00;60892.56;5874313;23;20007;-92
2023/01/02 03:36:23;;;;;;;1.35;0.68;;;;;;;-145.06;100.00;60892.56;5873508;23;20010;-93
2023/01/02 03:39:22;;;;;;;1.48;0.70;;;;;;;-145.06;100.00;60892.56;5894061;23;20062;-92
2023/01/02 03:42:07;;;;;;;1.20;0.80;;;;;;;-145.06;100.00;60892.56;5874128;23;20038;-93
2023/01/02 03:45:03;;;;;;;1.55;0.70;;;;;;;-145.06;100.00;60892.56;5872593;23;20026;-91
2023/01/02 03:47:45;;;;;;;1.90;0.60;;;;;;;-145.06;100.00;60892.56;5872853;23;20007;-92
2023/01/02 03:50:39;;;;;;;0.98;0.70;;;;;;;-145.06;100.00;60892.56;5874969;23;20442;-92
2023/01/02 03:53:35;;;;;;;1.83;0.70;;;;;;;-145.06;100.00;60892.56;5872355;23;20006;-91
2023/01/02 03:56:26;;;;;;;0.90;0.70;;;;;;;-145.06;100.00;60892.56;5871699;23;20081;-91
2023/01/02 03:59:11;;;;;;;0.90;0.60;;;;;;;-145.06;100.00;60892.56;5872628;23;20010;-94
2023/01/02 04:02:22;;;;;;;1.75;0.70;;;;;;;-145.06;100.00;60892.56;5870945;23;20066;-92
2023/01/02 04:05:36;;;;;;;2.53;0.77;;;;;;;-145.06;100.00;60892.56;5872092;23;20006;-92
2023/01/02 04:08:33;;;;;;;2.22;1.08;;;;;;;-145.06;100.00;60892.56;5874329;23;20007;-92
2023/01/02 04:11:37;;;;;;;1.50;0.70;;;;;;;-145.06;100.00;60892.56;5873927;23;20010;-92
2023/01/02 04:14:28;;;;;;;1.90;0.80;;;;;;;-145.06;100.00;60892.56;5872408;23;20046;-92
2023/01/02 04:17:09;;;;;;;2.08;0.90;;;;;;;-145.06;100.00;60892.56;5873843;23;20089;-93
2023/01/02 04:19:57;;;;;;;2.92;0.82;;;;;;;-145.06;100.00;60892.56;5874374;23;20014;-91
2023/01/02 04:22:56;;;;;;;2.40;0.77;;;;;;;-145.06;100.00;60892.56;5871035;23;20029;-92
2023/01/02 04:25:43;;;;;;;4.03;0.90;;;;;;;-145.06;100.00;60892.56;5894466;23;20458;-93
2023/01/02 04:28:29;;;;;;;5.68;1.55;;;;;;;-145.06;100.00;60892.56;5874760;23;20148;-92
2023/01/02 04:31:10;;;;;;;1.23;0.77;;;;;;;-145.06;100.00;60892.56;5872620;23;20006;-92
2023/01/02 04:33:56;;;;;;;2.08;0.85;;;;;;;-145.06;100.00;60892.56;5874064;23;20003;-92
2023/01/02 04:36:40;;;;;;;1.85;1.00;;;;;;;-145.06;100.00;60892.56;5873568;23;20425;-92
2023/01/02 04:39:21;;;;;;;1.45;0.77;;;;;;;-145.06;100.00;60892.56;5872092;23;20025;-91
2023/01/02 04:42:00;;;;;;;1.27;0.60;;;;;;;-145.06;100.00;60892.56;5872674;23;20006;-91
2023/01/02 04:44:41;;;;;;;2.42;0.77;;;;;;;-145.06;100.00;60892.56;5894150;23;20010;-93
2023/01/02 04:47:26;;;;;;;1.48;0.80;;;;;;;-145.06;100.00;60892.56;5874903;23;20006;-92
2023/01/02 04:50:07;;;;;;;1.55;0.70;;;;;;;-145.06;100.00;60892.56;5872842;23;20006;-93
2023/01/02 04:52:46;;;;;;;1.33;0.63;;;;;;;-145.06;100.00;60892.56;5873377;23;20011;-92
2023/01/02 04:55:25;;;;;;;1.35;0.80;;;;;;;-145.06;100.00;60892.56;5873381;23;20010;-92
2023/01/02 04:58:05;;;;;;;1.80;0.80;;;;;;;-145.06;100.00;60892.56;5890682;23;20006;-91
2023/01/02 05:00:44;;;;;;;;;;;;;;;-145.06;100.00;60892.56;5871655;23;20294;-93
2023/01/02 05:03:23;;;;;;;1.47;0.70;;;;;;;-145.06;100.00;60892.56;5871730;23;19905;-92
2023/01/02 05:06:02;;;;;;;1.83;0.85;;;;;;;-145.06;100.00;60892.56;5868783;23;20011;-91
2023/01/02 05:08:42;;;;;;;1.80;0.93;;;;;;;-145.06;100.00;60892.56;5870572;23;20006;-91
2023/01/02 05:11:21;;;;;;;1.63;0.85;;;;;;;-145.06;100.00;60892.56;5871563;23;20010;-92
2023/01/02 05:14:03;;;;;;;4.30;0.77;;;;;;;-145.06;100.00;60892.56;5868566;23;20010;-92
2023/01/02 05:16:42;;;;;;;1.25;0.60;;;;;;;-145.06;100.00;60892.56;5870022;23;20003;-92
2023/01/02 05:19:22;;;;;;;1.90;0.80;;;;;;;-145.06;100.00;60892.56;5870603;23;20010;-92
2023/01/02 05:24:59;;;;;;;0.98;0.60;;;;;;;-145.06;100.00;60892.56;5902522;23;20010;-92
2023/01/02 05:27:40;;;;;;;1.58;0.70;;;;;;;-145.06;100.00;60892.56;5870983;23;20461;-93
2023/01/02 05:30:20;;;;;;;2.65;0.70;;;;;;;-145.06;100.00;60892.56;5872663;23;20307;-91
2023/01/02 05:32:59;;;;;;;0.98;0.60;;;;;;;-145.06;100.00;60892.56;5870866;23;20037;-92
2023/01/02 05:35:44;;;;;;;0.85;0.60;;;;;;;-145.06;100.00;60892.56;5870221;23;20002;-94
2023/01/02 05:38:38;;;;;;;1.10;0.40;;;;;;;-145.06;100.00;60892.56;5872856;23;20006;-91
2023/01/02 05:41:41;;;;;;;;;;;;;;;;;;;;;
2023/01/02 05:49:16;;;;;;;1.70;0.70;;;;;;;-145.06;100.00;60892.56;5892192;23;20093;-91
2023/01/02 05:52:02;;;;;;;2.50;0.70;;;;;;;-145.06;100.00;60892.56;5869743;23;20097;-93
2023/01/02 05:54:44;;;;;;;1.00;0.57;;;;;;;-145.06;100.00;60892.56;5869686;23;20034;-92
2023/01/02 05:57:27;;;;;;;1.17;0.60;;;;;;;-145.06;100.00;60892.56;5872001;23;20066;-92
2023/01/02 06:00:12;;;;;;;1.33;0.60;;;;;;;-145.06;100.00;60892.56;5871276;23;20007;-92
2023/01/02 06:02:52;;;;;;;1.45;0.52;;;;;;;-145.06;100.00;60892.56;5869768;23;20319;-91
2023/01/02 06:05:31;;;;;;;1.33;0.87;;;;;;;-145.06;100.00;60892.56;5871718;23;20429;-93
2023/01/02 06:08:12;;;;;;;1.90;0.80;;;;;;;-145.06;100.00;60892.56;5871299;23;20242;-91
2023/01/02 06:10:54;;;;;;;0.95;0.57;;;;;;;-145.06;100.00;60892.56;5869087;23;20010;-94
2023/01/02 06:13:36;;;;;;;1.25;0.40;;;;;;;-145.06;100.00;60892.56;5871875;23;20433;-94
2023/01/02 06:16:15;;;;;;;2.08;0.55;;;;;;;-145.06;100.00;60892.56;5871634;23;20057;-93
2023/01/02 06:18:55;;;;;;;1.00;0.70;;;;;;;-145.06;100.00;60892.56;5868534;23;20011;-92
2023/01/02 06:21:34;;;;;;;2.53;0.50;;;;;;;-145.06;100.00;60892.56;5870868;23;20007;-92
2023/01/02 06:24:13;;;;;;;0.68;0.50;;;;;;;-145.06;100.00;60892.56;5870842;23;20006;-93
2023/01/02 06:26:54;;;;;;;1.30;0.50;;;;;;;-145.06;100.00;60892.56;5868573;23;20142;-93
2023/01/02 06:29:39;;;;;;;1.88;0.60;;;;;;;-145.06;100.00;60892.56;5869211;23;20011;-92
2023/01/02 06:32:18;;;;;;;0.63;0.40;;;;;;;-145.06;100.00;60892.56;5871954;23;20370;-92
2023/01/02 06:34:57;;;;;;;0.65;0.57;;;;;;;-145.06;100.00;60892.56;5871985;23;20314;-92
2023/01/02 06:37:43;;;;;;;1.98;0.63;;;;;;;-145.06;100.00;60892.56;5869582;23;20322;-94
2023/01/02 06:40:22;;;;;;;1.40;0.60;;;;;;;-145.06;100.00;60892.56;5872364;23;20014;-92
2023/01/02 06:43:02;;;;;;;1.73;0.60;;;;;;;-145.06;100.00;60892.56;5871759;23;20010;-94
2023/01/02 06:45:41;;;;;;;1.00;0.60;;;;;;;-145.06;100.00;60892.56;5869568;23;20010;-92
2023/01/02 06:48:23;;;;;;;0.77;0.50;;;;;;;-145.06;100.00;60892.56;5898122;23;20014;-92
2023/01/02 06:51:14;;;;;;;2.58;0.50;;;;;;;-145.06;100.00;60892.56;5920594;23;20002;-92
2023/01/02 06:53:56;;;;;;;1.00;0.50;;;;;;;-145.06;100.00;60892.56;5919215;23;20005;-93
2023/01/02 06:57:19;;;;;;;0.98;0.60;;;;;;;-145.06;100.00;60892.56;5918611;23;20002;-93
2023/01/02 07:00:20;;;;;;;1.27;0.80;;;;;;;-145.06;100.00;60892.56;5902804;23;20029;-93
2023/01/02 07:03:29;;;;;;;1.23;0.47;;;;;;;-145.06;100.00;60892.56;5918967;23;20018;-91
2023/01/02 07:07:17;;;;;;;1.07;0.60;;;;;;;-145.06;100.00;60892.56;5917603;23;20033;-94
2023/01/02 07:10:38;;;;;;;0.80;0.43;;;;;;;-145.06;100.00;60892.56;5921590;23;20010;-94
2023/01/02 07:13:32;;;;;;;0.68;0.50;;;;;;;-145.06;100.00;60892.56;5918919;23;19998;-92
2023/01/02 07:16:18;;;;;;;1.25;0.50;;;;;;;-145.06;100.00;60892.56;5916975;23;19998;-93
2023/01/02 07:18:57;;;;;;;1.08;0.50;;;;;;;-145.06;100.00;60892.56;5919096;23;20002;-92
2023/01/02 07:21:37;;;;;;;0.77;0.30;;;;;;;-145.06;100.00;60892.56;5914041;23;20295;-92
2023/01/02 07:24:16;;;;;;;0.85;0.40;;;;;;;-145.06;100.00;60892.56;5915650;23;20029;-90
2023/01/02 07:26:55;;;;;;;1.33;0.67;;;;;;;-145.06;100.00;60892.56;5918064;23;20014;-93
2023/01/02 07:29:43;;;;;;;1.02;0.50;;;;;;;-145.06;100.00;60892.56;5916914;23;20717;-91
2023/01/02 07:35:45;;;;;;;0.55;0.40;;;;;;;-145.06;100.00;60892.56;5928947;23;20406;-91
2023/01/02 07:38:25;;;;;;;0.95;0.38;;;;;;;-145.06;100.00;60892.56;5917516;23;20006;-92
2023/01/02 07:41:15;;;;;;;0.68;0.50;;;;;;;-145.06;100.00;60892.56;5917924;23;20013;-91
2023/01/02 07:43:55;;;;;;;0.50;0.38;;;;;;;-145.06;100.00;60892.56;5919235;23;20002;-91
2023/01/02 07:46:34;;;;;;;0.60;0.40;;;;;;;-145.06;100.00;60892.56;5919445;23;20322;-93
2023/01/02 07:49:16;;;;;;;0.50;0.40;;;;;;;-145.06;100.00;60892.56;5917733;23;20088;-92
2023/01/02 07:51:54;;;;;;;1.00;0.50;;;;;;;-145.06;100.00;60892.56;5918910;23;20010;-92
2023/01/02 07:54:33;;;;;;;0.93;0.52;;;;;;;-145.06;100.00;60892.56;5919776;23;20009;-92
2023/01/02 07:57:45;;;;;;;0.73;0.45;;;;;;;-145.06;100.00;60892.56;5917387;23;20014;-92
2023/01/02 08:00:47;;;;;;;0.85;0.52;;;;;;;-145.06;100.00;60892.56;5919159;23;20236;-93
2023/01/02 08:03:58;;;;;;;4.03;0.75;;;;;;;-145.06;100.00;60892.56;5919998;23;20456;-92
2023/01/02 08:06:45;;;;;;;3.95;0.85;;;;;;;-145.06;100.00;60892.56;5917959;23;20006;-91
2023/01/02 08:09:39;;;;;;;2.90;0.75;;;;;;;-145.06;100.00;60892.56;5918642;23;20310;-92
2023/01/02 08:12:38;;;;;;;1.38;0.57;;;;;;;-145.06;100.00;60892.56;5920073;23;20001;-91
2023/01/02 08:16:15;;;;;;;1.20;0.50;;;;;;;-145.06;100.00;60892.56;5918978;23;20072;-92
2023/01/02 08:19:31;;;;;;;;;;;;;;;;;;;;;
2023/01/02 08:22:51;;;;;;;1.13;0.52;;;;;;;-145.06;100.00;60892.56;5931067;23;20025;-94
2023/01/02 08:25:40;;;;;;;0.90;0.50;;;;;;;-145.06;100.00;60892.56;5918655;23;20010;-94
2023/01/02 08:28:58;;;;;;;1.33;0.50;;;;;;;-145.06;100.00;60892.56;5919580;23;20010;-93
2023/01/02 08:31:54;;;;;;;0.85;0.68;;;;;;;-145.06;100.00;60892.56;5919608;23;20006;-91
2023/01/02 08:35:12;;;;;;;1.77;0.60;;;;;;;-145.06;100.00;60892.56;5918474;23;20002;-93
2023/01/02 08:37:52;;;;;;;0.95;0.60;;;;;;;-145.06;100.00;60892.56;5843103;23;20010;-94
2023/01/02 08:40:33;;;;;;;1.52;0.60;;;;;;;-145.06;100.00;60892.56;5840565;23;20014;-93
2023/01/02 08:43:12;;;;;;;2.10;0.90;;;;;;;-145.06;100.00;60892.56;5910893;23;20033;-92
2023/01/02 08:45:57;;;;;;;1.07;0.60;;;;;;;-145.06;100.00;60892.56;5916295;23;20010;-92
2023/01/02 08:48:36;;;;;;;1.05;0.55;;;;;;;-145.06;100.00;60892.56;5914456;23;20250;-91
2023/01/02 08:51:15;;;;;;;1.27;0.70;;;;;;;-145.06;100.00;60892.56;5913677;23;20013;-91
2023/01/02 08:53:54;;;;;;;0.50;0.40;;;;;;;-145.06;100.00;60892.56;5914370;23;20010;-91
2023/01/02 08:56:34;;;;;;;1.43;0.50;;;;;;;-145.06;100.00;60892.56;5915287;23;20002;-90
2023/01/02 08:59:14;;;;;;;1.73;0.70;;;;;;;-145.06;100.00;60892.56;5916062;23;20005;-91
2023/01/02 09:01:53;;;;;;;0.80;0.55;;;;;;;-145.06;100.00;60892.56;5912505;23;20014;-91
2023/01/02 09:04:33;;;;;;;1.90;0.50;;;;;;;-145.06;100.00;60892.56;5915855;23;20014;-93
2023/01/02 09:07:12;;;;;;;1.02;0.60;;;;;;;-145.06;100.00;60892.56;5917221;23;20037;-90
2023/01/02 09:09:51;;;;;;;0.60;0.50;;;;;;;-145.06;100.00;60892.56;5913289;23;20089;-91
2023/01/02 09:12:31;;;;;;;0.47;0.40;;;;;;;-145.06;100.00;60892.56;5915636;23;20314;-92
2023/01/02 09:15:10;;;;;;;0.70;0.40;;;;;;;-145.06;100.00;60892.56;5918556;23;20369;-92
2023/01/02 09:17:50;;;;;;;0.70;0.40;;;;;;;-145.06;100.00;60892.56;5916929;23;20505;-91
2023/01/02 09:20:29;;;;;;;1.00;0.50;;;;;;;-145.06;100.00;60892.56;5916427;23;20010;-91
2023/01/02 09:23:08;;;;;;;0.85;0.47;;;;;;;-145.06;100.00;60892.56;5920317;23;20241;-91
2023/01/02 09:25:47;;;;;;;2.83;0.50;;;;;;;-145.06;100.00;60892.56;5916291;23;20325;-91
2023/01/02 09:28:27;;;;;;;0.80;0.50;;;;;;;-145.06;100.00;60892.56;5916789;23;20432;-92
2023/01/02 09:31:12;;;;;;;0.40;0.20;;;;;;;-145.06;100.00;60892.56;5917095;23;20428;-91
2023/01/02 09:33:53;;;;;;;0.60;0.30;;;;;;;-145.06;100.00;60892.56;5919406;23;20010;-90
2023/01/02 09:36:32;;;;;;;0.60;0.60;;;;;;;-145.06;100.00;60892.56;5917374;23;20001;-92
2023/01/02 09:39:11;;;;;;;0.90;0.70;;;;;;;-145.06;100.00;60892.56;5916443;23;20006;-91
2023/01/02 09:41:54;;;;;;;0.55;0.50;;;;;;;-145.06;100.00;60892.56;5918912;23;20033;-91
2023/01/02 09:44:40;;;;;;;0.32;0.32;;;;;;;-145.06;100.00;60892.56;5918373;23;20326;-91
2023/01/02 09:47:24;;;;;;;0.40;0.30;;;;;;;-145.06;100.00;60892.56;5916192;23;20037;-90
2023/01/02 09:50:09;;;;;;;0.40;0.40;;;;;;;-145.06;100.00;60892.56;5897312;23;20002;-92
2023/01/02 09:52:54;;;;;;;0.30;0.20;;;;;;;-145.06;100.00;60892.56;5898127;23;20445;-92
2023/01/02 09:55:54;;;;;;;0.45;0.40;;;;;;;-145.06;100.00;60892.56;5895480;23;20002;-91
2023/01/02 09:58:55;;;;;;;0.50;0.28;;;;;;;-145.06;100.00;60892.56;5898652;23;20002;-91
2023/01/02 10:02:20;;;;;;;0.28;0.28;;;;;;;-145.06;100.00;60892.56;5896589;23;20369;-90
2023/01/02 10:05:37;;;;;;;0.50;0.30;;;;;;;-145.06;100.00;60892.56;5897724;23;20002;-92
2023/01/02 10:08:20;;;;;;;0.60;0.40;;;;;;;-145.06;100.00;60892.56;5917129;23;20006;-92
2023/01/02 10:11:36;;;;;;;0.30;0.30;;;;;;;-145.06;100.00;60892.56;5908756;23;20009;-92
2023/01/02 10:14:31;;;;;;;0.30;0.30;;;;;;;-145.06;100.00;60892.56;5896208;23;20009;-92
2023/01/02 10:17:12;;;;;;;0.47;0.35;;;;;;;-145.06;100.00;60892.56;5897729;23;20005;-90
2023/01/02 10:20:07;;;;;;;0.80;0.50;;;;;;;-145.06;100.00;60892.56;5899308;23;20009;-92
2023/01/02 10:22:50;;;;;;;0.32;0.30;;;;;;;-145.06;100.00;60892.56;5896492;23;20014;-91
2023/01/02 10:25:35;;;;;;;0.60;0.30;;;;;;;-145.06;100.00;60892.56;5898487;23;20429;-92
2023/01/02 10:28:27;;;;;;;0.55;0.30;;;;;;;-145.06;100.00;60892.56;5898674;23;20006;-91
2023/01/02 10:31:21;;;;;;;0.22;0.22;;;;;;;-145.06;100.00;60892.56;5897132;23;20326;-90
2023/01/02 10:34:02;;;;;;;0.35;0.32;;;;;;;-145.06;100.00;60892.56;5898555;23;20030;-91
2023/01/02 10:36:44;;;;;;;0.60;0.40;;;;;;;-145.06;100.00;60892.56;5898145;23;20002;-91
2023/01/02 10:39:27;;;;;;;0.40;0.40;;;;;;;-145.06;100.00;60892.56;5898360;23;20002;-92
2023/01/02 10:42:11;;;;;;;0.80;0.38;;;;;;;-145.06;100.00;60892.56;5898469;23;20006;-92
2023/01/02 10:44:50;;;;;;;0.45;0.22;;;;;;;-145.06;100.00;60892.56;5898248;23;20005;-92
2023/01/02 10:47:37;;;;;;;0.50;0.30;;;;;;;-145.06;100.00;60892.56;5898187;23;20014;-91
2023/01/02 10:50:24;;;;;;;0.20;0.20;;;;;;;-145.06;100.00;60892.56;5898355;23;20329;-92
2023/01/02 10:53:20;;;;;;;0.50;0.50;;;;;;;-145.06;100.00;60892.56;5898398;23;20010;-90
2023/01/02 10:56:01;;;;;;;0.90;0.40;;;;;;;-145.06;100.00;60892.56;5898414;23;20002;-91
2023/01/02 10:58:49;;;;;;;0.40;0.32;;;;;;;-145.06;100.00;60892.56;5898918;23;20010;-92
2023/01/02 11:01:28;;;;;;;0.38;0.30;;;;;;;-145.06;100.00;60892.56;5897888;23;20002;-90
2023/01/02 11:04:10;;;;;;;0.68;0.40;;;;;;;-145.06;100.00;60892.56;5898217;23;20085;-91
2023/01/02 11:07:02;;;;;;;0.80;0.30;;;;;;;-145.06;100.00;60892.56;5898199;23;20322;-91
2023/01/02 11:09:53;;;;;;;0.75;0.40;;;;;;;-145.06;100.00;60892.56;5899275;23;20014;-91
2023/01/02 11:12:46;;;;;;;0.43;0.30;;;;;;;-145.06;100.00;60892.56;5900987;23;20009;-92
2023/01/02 11:15:29;;;;;;;0.50;0.30;;;;;;;-145.06;100.00;60892.56;5900708;23;20006;-91
2023/01/02 11:18:20;;;;;;;0.30;0.30;;;;;;;-145.06;100.00;60892.56;5901408;23;20045;-91
2023/01/02 11:21:03;;;;;;;0.25;0.20;;;;;;;-145.06;100.00;60892.56;5901434;23;20010;-91
2023/01/02 11:23:43;;;;;;;1.08;0.40;;;;;;;-145.06;100.00;60892.56;5901283;23;20009;-91
2023/01/02 11:26:25;;;;;;;0.40;0.40;;;;;;;-145.06;100.00;60892.56;5900607;23;20013;-90
2023/01/02 11:29:16;;;;;;;0.40;0.40;;;;;;;-145.06;100.00;60892.56;5902481;23;20302;-91
2023/01/02 11:31:59;;;;;;;0.30;0.30;;;;;;;-145.06;100.00;60892.56;5900972;23;20081;-90
2023/01/02 11:34:52;;;;;;;0.30;0.30;;;;;;;-145.06;100.00;60892.56;5901336;23;20006;-91
2023/01/02 11:37:31;;;;;;;0.43;0.30;;;;;;;-145.06;100.00;60892.56;5901477;23;20006;-92
2023/01/02 11:40:25;;;;;;;0.30;0.30;;;;;;;-145.06;100.00;60892.56;5902225;23;20006;-91
2023/01/02 11:46:20;;;;;;;0.75;0.30;;;;;;;-145.06;100.00;60892.56;5933326;23;20010;-91
2023/01/02 11:49:06;;;;;;;0.20;0.20;;;;;;;-145.06;100.00;60892.56;5919067;23;20014;-90
2023/01/02 11:51:53;;;;;;;0.20;0.20;;;;;;;-145.06;100.00;60892.56;5921480;23;20001;-91
2023/01/02 11:54:35;;;;;;;0.35;0.30;;;;;;;-145.06;100.00;60892.56;5919979;23;20006;-91
2023/01/02 11:57:28;;;;;;;0.22;0.22;;;;;;;-145.06;100.00;60892.56;5918940;23;20106;-92
2023/01/02 12:00:12;;;;;;;0.22;0.20;;;;;;;-145.06;100.00;60892.56;5919820;23;20009;-91
2023/01/02 12:02:52;;;;;;;0.22;0.22;;;;;;;-145.06;100.00;60892.56;5918069;23;20002;-90
2023/01/02 12:05:49;;;;;;;0.65;0.30;;;;;;;-145.06;100.00;60892.56;5919123;23;20034;-92
2023/01/02 12:08:47;;;;;;;0.35;0.30;;;;;;;-145.06;100.00;60892.56;5918656;23;20002;-90
2023/01/02 12:11:35;;;;;;;0.20;0.20;;;;;;;-145.06;100.00;60892.56;5918420;23;20002;-91
2023/01/02 12:14:21;;;;;;;0.63;0.20;;;;;;;-145.06;100.00;60892.56;5919283;23;20002;-93
2023/01/02 12:17:26;;;;;;;0.50;0.25;;;;;;;-145.06;100.00;60892.56;5917613;23;20010;-91
2023/01/02 12:20:10;;;;;;;0.30;0.30;;;;;;;-145.06;100.00;60892.56;5929925;23;20006;-91
2023/01/02 12:22:51;;;;;;;0.25;0.25;;;;;;;-145.06;100.00;60892.56;5918045;23;20013;-91
2023/01/02 12:26:24;;;;;;;0.30;0.30;;;;;;;-145.06;100.00;60892.56;5916202;23;20061;-92
2023/01/02 12:29:06;;;;;;;0.20;0.20;;;;;;;-145.06;100.00;60892.56;5839556;23;20006;-90
2023/01/02 12:31:56;;;;;;;0.45;0.28;;;;;;;-145.06;100.00;60892.56;5838910;23;20168;-90
2023/01/02 12:34:59;;;;;;;;;;;;;;;-145.06;100.00;60892.56;5914822;23;20428;-93
2023/01/02 12:37:48;;;;;;;0.20;0.20;;;;;;;-145.06;100.00;60892.56;5916477;23;19909;-92
2023/01/02 12:40:39;;;;;;;0.30;0.30;;;;;;;-145.06;100.00;60892.56;5916623;23;20002;-92
2023/01/02 12:43:56;;;;;;;0.50;0.22;;;;;;;-145.06;100.00;60892.56;5916973;23;20425;-90
2023/01/02 12:47:00;;;;;;;0.30;0.30;;;;;;;-145.06;100.00;60892.56;5916708;23;20310;-91
2023/01/02 12:49:45;;;;;;;0.50;0.30;;;;;;;-145.06;100.00;60892.56;5916907;23;20010;-91
2023/01/02 12:52:30;;;;;;;0.35;0.32;;;;;;;-145.06;100.00;60892.56;5916295;23;20010;-91
2023/01/02 12:55:37;;;;;;;0.68;0.40;;;;;;;-145.06;100.00;60892.56;5915264;23;20005;-91
2023/01/02 12:58:22;;;;;;;0.60;0.30;;;;;;;-145.06;100.00;60892.56;5915866;23;20010;-91
2023/01/02 13:01:16;;;;;;;0.40;0.22;;;;;;;-145.06;100.00;60892.56;5916946;23;20006;-91
2023/01/02 13:04:09;;;;;;;1.58;0.30;;;;;;;-145.06;100.00;60892.56;5919573;23;20298;-91
2023/01/02 13:06:51;;;;;;;0.57;0.30;;;;;;;-145.06;100.00;60892.56;5919095;23;20005;-92
2023/01/02 13:09:36;;;;;;;0.38;0.20;;;;;;;-145.06;100.00;60892.56;5919024;23;20058;-92